Time;durP1;ratioP1;P1;durP2;ratioP2;P2;SDS_P1;SDS_P2;PMS_P1;PMS_P2;Temp;Humidity;BMP_temperature;BMP_pressure;BME280_temperature;BME280_humidity;BME280_pressure;Samples;Min_cycle;Max_cycle;Signal;HPM_P1;HPM_P2
2023/04/06 00:09:48;;;;;;;8.37;5.97;;;;;;;2.64;38.65;100747.59;20716699;28;20268;-84
2023/04/06 00:19:50;;;;;;;9.40;6.20;;;;;;;2.37;39.50;100757.06;20722799;28;20229;-82
2023/04/06 00:29:52;;;;;;;12.67;6.37;;;;;;;2.37;39.63;100748.72;20740481;28;20287;-83
2023/04/06 00:39:55;;;;;;;10.80;5.83;;;;;;;2.06;40.25;100744.19;20737335;28;20193;-84
2023/04/06 00:49:57;;;;;;;7.63;5.63;;;;;;;1.93;40.61;100726.06;20742181;28;21132;-84
2023/04/06 01:00:00;;;;;;;8.40;6.23;;;;;;;1.44;41.71;100717.28;20758547;28;20264;-83
2023/04/06 01:10:03;;;;;;;11.93;6.27;;;;;;;1.72;41.68;100705.72;20767388;28;20221;-83
2023/04/06 01:20:07;;;;;;;9.60;6.17;;;;;;;1.90;40.73;100692.41;20730949;28;20279;-83
2023/04/06 01:30:10;;;;;;;9.10;6.80;;;;;;;1.67;41.79;100688.97;20736274;28;20377;-82
2023/04/06 01:40:18;;;;;;;6.90;5.90;;;;;;;1.34;42.17;100672.75;20742541;28;20260;-82
2023/04/06 01:50:24;;;;;;;7.10;5.90;;;;;;;1.39;42.28;100669.97;20735985;28;20251;-83
2023/04/06 02:00:27;;;;;;;8.67;6.20;;;;;;;1.65;41.81;100662.53;20758825;28;20189;-84
2023/04/06 02:10:30;;;;;;;7.53;6.33;;;;;;;1.91;41.07;100668.97;20771317;28;20289;-84
2023/04/06 02:20:35;;;;;;;8.40;5.60;;;;;;;1.29;42.13;100661.59;20776104;28;20282;-83
2023/04/06 02:30:38;;;;;;;8.53;5.93;;;;;;;1.68;41.08;100656.41;20782252;28;20569;-84
2023/04/06 02:40:40;;;;;;;8.33;6.00;;;;;;;1.50;41.99;100657.78;20779296;28;20192;-83
2023/04/06 02:51:09;;;;;;;8.10;5.70;;;;;;;1.41;41.93;100653.00;20784171;28;20225;-82
2023/04/06 03:01:12;;;;;;;7.50;5.63;;;;;;;1.63;41.36;100640.56;20774930;28;20204;-84
2023/04/06 03:11:16;;;;;;;8.07;5.87;;;;;;;1.35;42.52;100646.59;20778953;28;20221;-82
2023/04/06 03:21:19;;;;;;;7.70;5.70;;;;;;;1.22;42.33;100647.13;20770982;28;20213;-82
2023/04/06 03:31:26;;;;;;;9.93;5.93;;;;;;;1.04;42.49;100640.88;20744401;28;20622;-82
2023/04/06 03:41:35;;;;;;;7.67;5.40;;;;;;;0.71;43.53;100649.63;20772834;28;20193;-83
2023/04/06 03:52:05;;;;;;;7.50;5.83;;;;;;;0.92;43.15;100645.84;20763247;28;20224;-83
2023/04/06 04:02:07;;;;;;;7.20;5.77;;;;;;;0.87;42.77;100645.78;20771733;28;20273;-83
2023/04/06 04:12:09;;;;;;;7.33;5.00;;;;;;;1.04;42.89;100652.00;20738729;28;20629;-83
2023/04/06 04:22:12;;;;;;;7.17;5.50;;;;;;;1.29;42.09;100653.25;20778574;28;20271;-84
2023/04/06 04:32:16;;;;;;;7.47;5.80;;;;;;;1.24;41.95;100644.91;20762993;28;20299;-84
2023/04/06 04:42:20;;;;;;;8.20;5.00;;;;;;;1.16;42.32;100648.16;20799013;28;20540;-83
2023/04/06 04:52:26;;;;;;;12.30;5.73;;;;;;;1.12;42.08;100647.06;20710494;28;20221;-82
2023/04/06 05:02:35;;;;;;;8.70;5.83;;;;;;;0.84;42.63;100640.81;20711678;28;20197;-82
2023/04/06 05:12:57;;;;;;;7.27;5.10;;;;;;;1.28;41.09;100640.44;20722731;28;20629;-82
2023/04/06 05:23:01;;;;;;;6.33;4.33;;;;;;;1.65;38.79;100632.75;20745653;28;20224;-83
2023/04/06 05:33:05;;;;;;;4.77;4.20;;;;;;;2.05;36.76;100631.13;20740748;28;20225;-82
2023/04/06 05:43:24;;;;;;;5.63;3.67;;;;;;;2.29;37.64;100612.78;20732111;28;20229;-83
2023/04/06 05:53:30;;;;;;;6.47;4.00;;;;;;;2.50;36.12;100623.88;20735579;28;20283;-83
2023/04/06 06:03:34;;;;;;;5.73;4.00;;;;;;;2.68;35.00;100628.88;20737324;28;20186;-82
2023/04/06 06:13:37;;;;;;;5.50;3.77;;;;;;;2.59;35.77;100624.97;20735204;28;20275;-82
2023/04/06 06:23:41;;;;;;;6.10;3.93;;;;;;;2.59;36.49;100622.16;20720931;28;20291;-81
2023/04/06 06:33:50;;;;;;;5.07;3.53;;;;;;;2.85;35.80;100623.81;20751007;28;20683;-81
2023/04/06 06:43:54;;;;;;;4.47;3.70;;;;;;;2.79;35.71;100627.75;20721907;28;20243;-83
2023/04/06 06:53:56;;;;;;;5.93;3.50;;;;;;;3.18;35.18;100629.84;20717636;28;20256;-81
2023/04/06 07:03:59;;;;;;;6.07;3.53;;;;;;;3.56;34.61;100617.91;20704195;28;20299;-81
2023/04/06 07:14:02;;;;;;;5.30;3.70;;;;;;;4.02;33.33;100614.78;20726078;28;20225;-81
2023/04/06 07:24:04;;;;;;;7.00;3.87;;;;;;;3.95;34.38;100614.28;20736424;28;20229;-81
2023/04/06 07:34:07;;;;;;;5.47;4.10;;;;;;;4.09;33.42;100613.34;20716975;28;20228;-81
2023/04/06 07:44:09;;;;;;;6.70;4.50;;;;;;;5.05;32.51;100600.34;20716789;28;20488;-81
2023/04/06 07:54:13;;;;;;;6.33;3.80;;;;;;;4.91;31.77;100597.44;20715522;28;20275;-82
2023/04/06 08:04:15;;;;;;;5.40;4.07;;;;;;;5.07;32.62;100594.44;20734127;28;20606;-80
2023/04/06 08:14:18;;;;;;;6.70;4.20;;;;;;;6.09;31.22;100593.81;20759159;28;20612;-80
2023/04/06 08:24:20;;;;;;;8.17;4.90;;;;;;;6.58;29.84;100596.88;20706309;28;20221;-81
2023/04/06 08:34:22;;;;;;;8.60;4.40;;;;;;;7.08;29.28;100577.38;20738732;28;20270;-79
2023/04/06 08:44:25;;;;;;;6.13;4.73;;;;;;;6.93;29.62;100574.91;20748642;28;20181;-81
2023/04/06 08:54:27;;;;;;;7.53;5.43;;;;;;;7.26;29.61;100567.16;20730731;28;20247;-80
2023/04/06 09:04:29;;;;;;;9.03;6.23;;;;;;;7.43;29.14;100561.72;20718625;28;20198;-80
2023/04/06 09:14:38;;;;;;;7.27;5.60;;;;;;;7.76;29.45;100565.19;20765875;28;20283;-80
2023/04/06 09:24:52;;;;;;;9.90;7.30;;;;;;;8.80;26.51;100550.63;21300758;22;20699;-81
2023/04/06 09:34:54;;;;;;;10.80;7.27;;;;;;;8.44;27.68;100545.16;20799472;28;20224;-80
2023/04/06 09:44:56;;;;;;;8.67;6.70;;;;;;;8.59;26.32;100549.53;20831870;28;20231;-81
2023/04/06 09:55:04;;;;;;;10.10;7.10;;;;;;;9.76;25.78;100537.59;20843998;28;20212;-81
2023/04/06 10:05:16;;;;;;;10.77;7.53;;;;;;;9.06;26.58;100541.44;20827245;28;20201;-81
2023/04/06 10:15:18;;;;;;;11.52;7.85;;;;;;;9.03;26.23;100530.84;20792821;28;20219;-81
2023/04/06 10:25:31;;;;;;;13.47;9.40;;;;;;;8.91;27.10;100533.47;20834106;28;20220;-80
2023/04/06 10:35:38;;;;;;;15.05;9.20;;;;;;;8.83;26.97;100544.38;20832644;28;20244;-81
2023/04/06 10:45:42;;;;;;;15.63;10.23;;;;;;;10.36;26.09;100516.91;20786890;28;20205;-81
2023/04/06 10:55:45;;;;;;;14.53;10.13;;;;;;;9.66;27.13;100518.19;20809790;28;20556;-82
2023/04/06 11:05:49;;;;;;;16.80;9.97;;;;;;;9.59;26.89;100510.22;20800068;28;20224;-80
2023/04/06 11:15:51;;;;;;;14.00;9.90;;;;;;;9.40;27.57;100504.06;20817430;28;20663;-82
2023/04/06 11:25:54;;;;;;;11.95;9.25;;;;;;;9.49;26.86;100502.91;20807841;28;20236;-81
2023/04/06 11:35:59;;;;;;;15.27;9.93;;;;;;;11.45;24.15;100481.16;20804740;28;20208;-80
2023/04/06 11:46:04;;;;;;;12.32;10.13;;;;;;;9.84;25.30;100483.19;20775309;28;20629;-82
2023/04/06 11:56:06;;;;;;;16.92;11.73;;;;;;;10.69;24.23;100470.00;20808603;28;20242;-82
2023/04/06 12:06:08;;;;;;;14.18;11.32;;;;;;;10.84;24.91;100462.94;20799151;28;20239;-82
2023/04/06 12:16:10;;;;;;;15.48;12.00;;;;;;;10.83;25.42;100456.47;20770832;28;20282;-80
2023/04/06 12:26:13;;;;;;;14.30;10.68;;;;;;;10.46;25.63;100457.31;20748196;28;20726;-80
2023/04/06 12:36:18;;;;;;;16.17;10.93;;;;;;;10.75;26.10;100460.16;20737500;28;20220;-81
2023/04/06 12:46:22;;;;;;;45.63;31.67;;;;;;;11.33;25.58;100449.97;20781938;28;20264;-73
2023/04/06 12:56:24;;;;;;;14.40;10.60;;;;;;;11.82;25.02;100444.56;20808704;28;20243;-80
2023/04/06 13:06:29;;;;;;;14.43;10.43;;;;;;;11.16;25.63;100436.78;20800390;28;20283;-82
2023/04/06 13:16:31;;;;;;;15.05;10.77;;;;;;;11.75;25.39;100431.00;20777661;28;20235;-80
2023/04/06 13:26:37;;;;;;;12.02;9.52;;;;;;;11.26;26.39;100429.88;20806086;28;20305;-80
2023/04/06 13:36:41;;;;;;;11.82;9.35;;;;;;;11.55;27.01;100420.53;20796855;28;20204;-80
2023/04/06 13:46:43;;;;;;;12.63;9.55;;;;;;;11.19;26.68;100421.97;20823807;28;20263;-80
2023/04/06 13:56:45;;;;;;;12.18;8.90;;;;;;;10.61;28.18;100434.16;20818859;28;20598;-81
2023/04/06 14:06:49;;;;;;;9.13;7.68;;;;;;;10.75;28.01;100426.25;20819435;28;20217;-80
2023/04/06 14:16:54;;;;;;;7.03;5.13;;;;;;;10.98;27.50;100438.94;20820389;28;20224;-80
2023/04/06 14:27:03;;;;;;;7.03;4.55;;;;;;;10.58;28.10;100430.03;20812315;28;20533;-80
2023/04/06 14:37:06;;;;;;;7.95;6.25;;;;;;;10.50;28.26;100435.72;20824642;28;20193;-80
2023/04/06 14:47:09;;;;;;;9.38;6.05;;;;;;;9.48;31.23;100439.25;20812636;28;20213;-79
2023/04/06 14:57:11;;;;;;;9.17;6.73;;;;;;;9.79;32.03;100425.00;20822433;28;20490;-80
2023/04/06 15:07:14;;;;;;;9.32;7.20;;;;;;;10.68;30.26;100428.81;20800361;28;20224;-79
2023/04/06 15:17:16;;;;;;;9.03;6.17;;;;;;;10.28;32.62;100437.59;20803716;28;20200;-81
2023/04/06 15:27:19;;;;;;;10.70;7.80;;;;;;;9.43;34.46;100438.59;20810955;28;20224;-82
2023/04/06 15:37:21;;;;;;;10.47;7.57;;;;;;;9.39;35.35;100449.72;20819077;28;20266;-81
2023/04/06 15:47:24;;;;;;;10.00;7.25;;;;;;;8.61;37.74;100454.34;20802005;28;20217;-83
2023/04/06 15:57:26;;;;;;;10.67;7.13;;;;;;;9.08;37.19;100447.03;20801508;28;20193;-84
2023/04/06 16:07:30;;;;;;;8.48;6.10;;;;;;;9.11;37.82;100452.00;20806131;28;20209;-80
2023/04/06 16:17:34;;;;;;;5.65;4.78;;;;;;;8.70;38.74;100460.88;20820006;28;20192;-81
2023/04/06 16:27:37;;;;;;;6.50;4.07;;;;;;;7.84;42.54;100459.63;20836160;28;20513;-80
2023/04/06 16:38:05;;;;;;;7.23;4.77;;;;;;;8.11;43.98;100460.28;20833005;28;20197;-81
2023/04/06 16:48:09;;;;;;;6.83;4.47;;;;;;;8.62;43.89;100456.03;20815417;28;20270;-80
2023/04/06 16:58:14;;;;;;;5.80;4.65;;;;;;;9.10;42.69;100463.59;20807723;28;20189;-80
2023/04/06 17:08:34;;;;;;;6.70;5.67;;;;;;;8.51;43.81;100468.72;20823421;28;20216;-81
2023/04/06 17:18:52;;;;;;;7.65;6.10;;;;;;;7.80;48.80;100476.28;20817007;28;20224;-79
2023/04/06 17:28:54;;;;;;;8.20;6.77;;;;;;;7.58;50.69;100484.69;20839599;28;20763;-82
2023/04/06 17:38:56;;;;;;;11.97;8.40;;;;;;;7.80;51.11;100493.13;20842998;28;20509;-80
2023/04/06 17:49:12;;;;;;;8.77;7.05;;;;;;;7.50;54.21;100496.66;20827109;28;20217;-80
2023/04/06 17:59:35;;;;;;;9.57;7.10;;;;;;;7.04;56.07;100503.34;20822100;28;20231;-85
2023/04/06 18:09:38;;;;;;;8.53;7.43;;;;;;;7.34;55.62;100496.22;20821308;28;20212;-78
2023/04/06 18:19:40;;;;;;;11.57;7.23;;;;;;;7.46;56.90;100492.84;20822153;28;20350;-78
2023/04/06 18:29:46;;;;;;;8.10;6.30;;;;;;;6.94;57.08;100497.97;20820518;28;20220;-80
2023/04/06 18:39:48;;;;;;;5.87;5.23;;;;;;;6.34;57.17;100489.63;20821799;28;20582;-78
2023/04/06 18:49:50;;;;;;;6.17;4.80;;;;;;;6.12;57.26;100486.69;20811130;28;20270;-79
2023/04/06 18:59:54;;;;;;;5.73;5.07;;;;;;;5.96;58.21;100481.38;20821156;28;20278;-78
2023/04/06 19:09:57;;;;;;;9.87;5.17;;;;;;;6.07;58.43;100478.38;20803778;28;20271;-78
2023/04/06 19:19:59;;;;;;;8.13;5.53;;;;;;;6.33;57.45;100468.34;20839266;28;20290;-78
2023/04/06 19:30:04;;;;;;;6.87;6.17;;;;;;;5.94;58.36;100464.03;20804350;28;21116;-77
2023/04/06 19:40:09;;;;;;;9.07;6.00;;;;;;;5.82;59.52;100460.88;20818425;28;20196;-78
2023/04/06 19:50:11;;;;;;;8.10;6.23;;;;;;;6.01;59.35;100447.66;20801207;28;20220;-79
2023/04/06 20:00:15;;;;;;;7.13;6.27;;;;;;;6.04;59.10;100445.38;20835133;28;20660;-78
2023/04/06 20:10:18;;;;;;;6.53;5.27;;;;;;;5.61;60.56;100442.78;20813079;28;20212;-77
2023/04/06 20:20:20;;;;;;;6.23;5.43;;;;;;;5.63;60.84;100430.16;20815516;28;20278;-77
2023/04/06 20:30:22;;;;;;;6.37;5.40;;;;;;;5.85;61.22;100415.44;20815306;28;20509;-78
2023/04/06 20:40:24;;;;;;;6.73;4.97;;;;;;;5.67;61.50;100419.13;20812281;28;20188;-77
2023/04/06 20:50:26;;;;;;;5.37;4.83;;;;;;;5.73;61.26;100415.13;20824596;28;20259;-77
2023/04/06 21:00:29;;;;;;;6.20;5.20;;;;;;;6.02;61.58;100412.06;20826871;28;20251;-77
2023/04/06 21:10:31;;;;;;;5.70;4.87;;;;;;;5.89;60.69;100399.69;20843592;28;20560;-86
2023/04/06 21:20:34;;;;;;;4.67;4.10;;;;;;;5.74;62.21;100379.53;20825027;28;20275;-86
2023/04/06 21:30:36;;;;;;;4.53;4.07;;;;;;;5.97;61.28;100373.75;20832293;28;20220;-87
2023/04/06 21:40:38;;;;;;;4.90;3.93;;;;;;;5.87;61.82;100361.91;20833477;28;20188;-85
2023/04/06 21:50:40;;;;;;;5.17;4.67;;;;;;;5.99;62.23;100367.84;20837222;28;20212;-85
2023/04/06 22:00:43;;;;;;;4.77;4.23;;;;;;;5.47;64.05;100363.50;20828941;28;20196;-84
2023/04/06 22:10:45;;;;;;;4.17;3.67;;;;;;;5.91;63.72;100351.75;20830439;28;20819;-80
2023/04/06 22:20:47;;;;;;;3.20;3.00;;;;;;;5.74;63.04;100345.94;20830472;28;20236;-84
2023/04/06 22:30:49;;;;;;;3.70;3.23;;;;;;;5.83;62.93;100339.28;20830271;28;20224;-87
2023/04/06 22:40:51;;;;;;;3.80;3.37;;;;;;;6.29;60.77;100339.19;20824221;28;20188;-84
2023/04/06 22:50:54;;;;;;;3.20;2.90;;;;;;;6.27;61.83;100340.63;20827471;28;20641;-86
2023/04/06 23:00:57;;;;;;;4.07;2.90;;;;;;;6.01;62.92;100335.56;20827003;28;20205;-85
2023/04/06 23:10:59;;;;;;;3.70;3.20;;;;;;;6.37;62.48;100318.81;20825313;28;20278;-78
2023/04/06 23:21:01;;;;;;;4.17;3.30;;;;;;;5.95;62.83;100322.78;20824411;28;20922;-78
2023/04/06 23:31:03;;;;;;;4.27;3.07;;;;;;;6.22;62.46;100321.09;20821821;28;20236;-76
2023/04/06 23:41:05;;;;;;;3.97;3.47;;;;;;;5.84;64.67;100332.53;20822685;28;20243;-79
2023/04/06 23:51:07;;;;;;;3.83;3.43;;;;;;;6.21;62.92;100323.06;20822072;28;20227;-78
